Terminal Aerodrome Forecast
Issued by NWS

Home | Current Version | Previous Version | Text Only | Print | Product List | Glossary On
Versions: 1 2 3 4 5 6 7 8 9 10 11 12 13 14 15 16 17 18
000
FTUS43 KAPX 131200 AAA
TAFMBL
TAF AMD
KMBL 131259Z 1313/1412 27005KT P6SM BKN008
     FM131600 28011G20KT P6SM SCT040
     FM132200 30008KT P6SM FEW040
     FM140000 VRB03KT P6SM SKC
      AMD LTD TO CLD VIS AND WIND=

USA.gov is the U.S. government's official web portal to all federal, state and local government web resources and services.